sensor_id;sensor_type;location;lat;lon;timestamp;temperature;humidity
31979;DHT22;18502;43.574;1.276;2023-11-19T00:00:17;7.30;99.90
31979;DHT22;18502;43.574;1.276;2023-11-19T00:02:42;7.40;99.90
31979;DHT22;18502;43.574;1.276;2023-11-19T00:05:09;7.30;99.90
31979;DHT22;18502;43.574;1.276;2023-11-19T00:07:37;7.30;99.90
31979;DHT22;18502;43.574;1.276;2023-11-19T00:10:08;7.20;99.90
31979;DHT22;18502;43.574;1.276;2023-11-19T00:12:37;7.20;99.90
31979;DHT22;18502;43.574;1.276;2023-11-19T00:15:03;7.00;99.90
31979;DHT22;18502;43.574;1.276;2023-11-19T00:17:29;7.00;99.90
31979;DHT22;18502;43.574;1.276;2023-11-19T00:19:54;7.10;99.90
31979;DHT22;18502;43.574;1.276;2023-11-19T00:22:20;7.10;99.90
31979;DHT22;18502;43.574;1.276;2023-11-19T00:24:47;7.20;99.90
31979;DHT22;18502;43.574;1.276;2023-11-19T00:27:12;7.20;99.90
31979;DHT22;18502;43.574;1.276;2023-11-19T00:29:38;7.10;99.90
31979;DHT22;18502;43.574;1.276;2023-11-19T00:32:04;7.10;99.90
31979;DHT22;18502;43.574;1.276;2023-11-19T00:34:30;7.00;99.90
31979;DHT22;18502;43.574;1.276;2023-11-19T00:36:56;7.10;99.90
31979;DHT22;18502;43.574;1.276;2023-11-19T00:39:22;7.10;99.90
31979;DHT22;18502;43.574;1.276;2023-11-19T00:41:48;7.20;99.90
31979;DHT22;18502;43.574;1.276;2023-11-19T00:44:14;7.20;99.90
31979;DHT22;18502;43.574;1.276;2023-11-19T00:46:39;7.20;99.90
31979;DHT22;18502;43.574;1.276;2023-11-19T00:49:05;7.20;99.90
31979;DHT22;18502;43.574;1.276;2023-11-19T00:51:31;7.20;99.90
31979;DHT22;18502;43.574;1.276;2023-11-19T00:53:59;7.10;99.90
31979;DHT22;18502;43.574;1.276;2023-11-19T00:56:26;7.00;99.90
31979;DHT22;18502;43.574;1.276;2023-11-19T00:58:52;6.90;99.90
31979;DHT22;18502;43.574;1.276;2023-11-19T01:01:17;6.90;99.90
31979;DHT22;18502;43.574;1.276;2023-11-19T01:03:43;6.80;99.90
31979;DHT22;18502;43.574;1.276;2023-11-19T01:06:08;6.80;99.90
31979;DHT22;18502;43.574;1.276;2023-11-19T01:08:34;6.90;99.90
31979;DHT22;18502;43.574;1.276;2023-11-19T01:11:01;6.80;99.90
31979;DHT22;18502;43.574;1.276;2023-11-19T01:13:27;6.80;99.90
31979;DHT22;18502;43.574;1.276;2023-11-19T01:15:53;6.80;99.90
31979;DHT22;18502;43.574;1.276;2023-11-19T01:18:21;6.80;99.90
31979;DHT22;18502;43.574;1.276;2023-11-19T01:20:47;6.80;99.90
31979;DHT22;18502;43.574;1.276;2023-11-19T01:23:13;6.70;99.90
31979;DHT22;18502;43.574;1.276;2023-11-19T01:25:38;6.70;99.90
31979;DHT22;18502;43.574;1.276;2023-11-19T01:28:04;6.70;99.90
31979;DHT22;18502;43.574;1.276;2023-11-19T01:30:30;6.80;99.90
31979;DHT22;18502;43.574;1.276;2023-11-19T01:32:56;6.90;99.90
31979;DHT22;18502;43.574;1.276;2023-11-19T01:35:21;6.80;99.90
31979;DHT22;18502;43.574;1.276;2023-11-19T01:37:48;6.70;99.90
31979;DHT22;18502;43.574;1.276;2023-11-19T01:40:20;6.70;99.90
31979;DHT22;18502;43.574;1.276;2023-11-19T01:42:46;6.70;99.90
31979;DHT22;18502;43.574;1.276;2023-11-19T01:45:29;6.70;99.90
31979;DHT22;18502;43.574;1.276;2023-11-19T01:47:56;6.70;99.90
31979;DHT22;18502;43.574;1.276;2023-11-19T01:50:25;6.70;99.90
31979;DHT22;18502;43.574;1.276;2023-11-19T01:52:54;6.80;99.90
31979;DHT22;18502;43.574;1.276;2023-11-19T01:55:23;6.70;99.90
31979;DHT22;18502;43.574;1.276;2023-11-19T01:57:49;6.70;99.90
31979;DHT22;18502;43.574;1.276;2023-11-19T02:00:16;6.60;99.90
31979;DHT22;18502;43.574;1.276;2023-11-19T02:02:45;6.50;99.90
31979;DHT22;18502;43.574;1.276;2023-11-19T02:05:12;6.60;99.90
31979;DHT22;18502;43.574;1.276;2023-11-19T02:07:38;6.60;99.90
31979;DHT22;18502;43.574;1.276;2023-11-19T02:10:04;6.60;99.90
31979;DHT22;18502;43.574;1.276;2023-11-19T02:12:34;6.60;99.90
31979;DHT22;18502;43.574;1.276;2023-11-19T02:15:01;6.60;99.90
31979;DHT22;18502;43.574;1.276;2023-11-19T02:17:29;6.60;99.90
31979;DHT22;18502;43.574;1.276;2023-11-19T02:19:57;6.60;99.90
31979;DHT22;18502;43.574;1.276;2023-11-19T02:22:23;6.50;99.90
31979;DHT22;18502;43.574;1.276;2023-11-19T02:24:51;6.50;99.90
31979;DHT22;18502;43.574;1.276;2023-11-19T02:30:11;6.50;99.90
31979;DHT22;18502;43.574;1.276;2023-11-19T02:32:37;6.50;99.90
31979;DHT22;18502;43.574;1.276;2023-11-19T02:35:06;6.40;99.90
31979;DHT22;18502;43.574;1.276;2023-11-19T02:37:34;6.40;99.90
31979;DHT22;18502;43.574;1.276;2023-11-19T02:39:59;6.50;99.90
31979;DHT22;18502;43.574;1.276;2023-11-19T02:42:28;6.40;99.90
31979;DHT22;18502;43.574;1.276;2023-11-19T02:44:54;6.40;99.90
31979;DHT22;18502;43.574;1.276;2023-11-19T02:47:19;6.40;99.90
31979;DHT22;18502;43.574;1.276;2023-11-19T02:49:47;6.30;99.90
31979;DHT22;18502;43.574;1.276;2023-11-19T02:52:13;6.30;99.90
31979;DHT22;18502;43.574;1.276;2023-11-19T02:54:40;6.40;99.90
31979;DHT22;18502;43.574;1.276;2023-11-19T02:57:06;6.30;99.90
31979;DHT22;18502;43.574;1.276;2023-11-19T02:59:36;6.20;99.90
31979;DHT22;18502;43.574;1.276;2023-11-19T03:02:05;6.20;99.90
31979;DHT22;18502;43.574;1.276;2023-11-19T03:04:33;6.20;99.90
31979;DHT22;18502;43.574;1.276;2023-11-19T03:06:59;6.10;99.90
31979;DHT22;18502;43.574;1.276;2023-11-19T03:09:24;6.10;99.90
31979;DHT22;18502;43.574;1.276;2023-11-19T03:11:50;6.10;99.90
31979;DHT22;18502;43.574;1.276;2023-11-19T03:14:16;6.00;99.90
31979;DHT22;18502;43.574;1.276;2023-11-19T03:16:45;6.00;99.90
31979;DHT22;18502;43.574;1.276;2023-11-19T03:19:11;6.10;99.90
31979;DHT22;18502;43.574;1.276;2023-11-19T03:21:37;6.10;99.90
31979;DHT22;18502;43.574;1.276;2023-11-19T03:24:03;6.10;99.90
31979;DHT22;18502;43.574;1.276;2023-11-19T03:26:29;6.00;99.90
31979;DHT22;18502;43.574;1.276;2023-11-19T03:28:55;6.00;99.90
31979;DHT22;18502;43.574;1.276;2023-11-19T03:31:22;6.10;99.90
31979;DHT22;18502;43.574;1.276;2023-11-19T03:33:48;6.10;99.90
31979;DHT22;18502;43.574;1.276;2023-11-19T03:36:14;6.10;99.90
31979;DHT22;18502;43.574;1.276;2023-11-19T03:38:39;6.10;99.90
31979;DHT22;18502;43.574;1.276;2023-11-19T03:41:14;6.00;99.90
31979;DHT22;18502;43.574;1.276;2023-11-19T03:43:41;5.90;99.90
31979;DHT22;18502;43.574;1.276;2023-11-19T03:46:20;6.00;99.90
31979;DHT22;18502;43.574;1.276;2023-11-19T03:48:49;6.00;99.90
31979;DHT22;18502;43.574;1.276;2023-11-19T03:51:16;6.00;99.90
31979;DHT22;18502;43.574;1.276;2023-11-19T03:53:45;6.00;99.90
31979;DHT22;18502;43.574;1.276;2023-11-19T03:56:11;6.00;99.90
31979;DHT22;18502;43.574;1.276;2023-11-19T03:58:37;6.00;99.90
31979;DHT22;18502;43.574;1.276;2023-11-19T04:01:13;6.00;99.90
31979;DHT22;18502;43.574;1.276;2023-11-19T04:03:39;6.00;99.90
31979;DHT22;18502;43.574;1.276;2023-11-19T04:06:04;6.00;99.90
31979;DHT22;18502;43.574;1.276;2023-11-19T04:08:30;6.00;99.90
31979;DHT22;18502;43.574;1.276;2023-11-19T04:10:56;6.10;99.90
31979;DHT22;18502;43.574;1.276;2023-11-19T04:13:21;6.10;99.90
31979;DHT22;18502;43.574;1.276;2023-11-19T04:15:49;6.20;99.90
31979;DHT22;18502;43.574;1.276;2023-11-19T04:18:15;6.30;99.90
31979;DHT22;18502;43.574;1.276;2023-11-19T04:20:41;6.40;99.90
31979;DHT22;18502;43.574;1.276;2023-11-19T04:23:08;6.30;99.90
31979;DHT22;18502;43.574;1.276;2023-11-19T04:25:35;6.40;99.90
31979;DHT22;18502;43.574;1.276;2023-11-19T04:28:01;6.30;99.90
31979;DHT22;18502;43.574;1.276;2023-11-19T04:30:28;6.30;99.90
31979;DHT22;18502;43.574;1.276;2023-11-19T04:32:53;6.20;99.90
31979;DHT22;18502;43.574;1.276;2023-11-19T04:35:19;6.20;99.90
31979;DHT22;18502;43.574;1.276;2023-11-19T04:37:44;6.20;99.90
31979;DHT22;18502;43.574;1.276;2023-11-19T04:40:10;6.40;99.90
31979;DHT22;18502;43.574;1.276;2023-11-19T04:42:37;6.40;99.90
31979;DHT22;18502;43.574;1.276;2023-11-19T04:45:06;6.40;99.90
31979;DHT22;18502;43.574;1.276;2023-11-19T04:47:33;6.40;99.90
31979;DHT22;18502;43.574;1.276;2023-11-19T04:49:59;6.50;99.90
31979;DHT22;18502;43.574;1.276;2023-11-19T04:52:25;6.50;99.90
31979;DHT22;18502;43.574;1.276;2023-11-19T04:54:50;6.50;99.90
31979;DHT22;18502;43.574;1.276;2023-11-19T04:57:17;6.50;99.90
31979;DHT22;18502;43.574;1.276;2023-11-19T04:59:42;6.50;99.90
31979;DHT22;18502;43.574;1.276;2023-11-19T05:02:08;6.40;99.90
31979;DHT22;18502;43.574;1.276;2023-11-19T05:04:34;6.30;99.90
31979;DHT22;18502;43.574;1.276;2023-11-19T05:07:00;6.30;99.90
31979;DHT22;18502;43.574;1.276;2023-11-19T05:09:26;6.20;99.90
31979;DHT22;18502;43.574;1.276;2023-11-19T05:11:51;6.20;99.90
31979;DHT22;18502;43.574;1.276;2023-11-19T05:14:17;6.20;99.90
31979;DHT22;18502;43.574;1.276;2023-11-19T05:16:45;6.20;99.90
31979;DHT22;18502;43.574;1.276;2023-11-19T05:19:11;6.20;99.90
31979;DHT22;18502;43.574;1.276;2023-11-19T05:21:37;6.20;99.90
31979;DHT22;18502;43.574;1.276;2023-11-19T05:24:03;6.20;99.90
31979;DHT22;18502;43.574;1.276;2023-11-19T05:26:31;6.10;99.90
31979;DHT22;18502;43.574;1.276;2023-11-19T05:28:57;6.00;99.90
31979;DHT22;18502;43.574;1.276;2023-11-19T05:31:22;6.00;99.90
31979;DHT22;18502;43.574;1.276;2023-11-19T05:33:48;6.00;99.90
31979;DHT22;18502;43.574;1.276;2023-11-19T05:36:14;6.00;99.90
31979;DHT22;18502;43.574;1.276;2023-11-19T05:38:40;6.00;99.90
31979;DHT22;18502;43.574;1.276;2023-11-19T05:41:05;6.10;99.90
31979;DHT22;18502;43.574;1.276;2023-11-19T05:43:34;6.00;99.90
31979;DHT22;18502;43.574;1.276;2023-11-19T05:45:59;6.00;99.90
31979;DHT22;18502;43.574;1.276;2023-11-19T05:48:27;6.10;99.90
31979;DHT22;18502;43.574;1.276;2023-11-19T05:50:53;6.10;99.90
31979;DHT22;18502;43.574;1.276;2023-11-19T05:53:19;6.10;99.90
31979;DHT22;18502;43.574;1.276;2023-11-19T05:55:44;6.20;99.90
31979;DHT22;18502;43.574;1.276;2023-11-19T05:58:12;6.20;99.90
31979;DHT22;18502;43.574;1.276;2023-11-19T06:00:38;6.20;99.90
31979;DHT22;18502;43.574;1.276;2023-11-19T06:03:06;6.20;99.90
31979;DHT22;18502;43.574;1.276;2023-11-19T06:05:32;6.10;99.90
31979;DHT22;18502;43.574;1.276;2023-11-19T06:07:58;6.10;99.90
31979;DHT22;18502;43.574;1.276;2023-11-19T06:10:24;6.10;99.90
31979;DHT22;18502;43.574;1.276;2023-11-19T06:12:57;6.10;99.90
31979;DHT22;18502;43.574;1.276;2023-11-19T06:15:25;6.10;99.90
31979;DHT22;18502;43.574;1.276;2023-11-19T06:17:52;6.10;99.90
31979;DHT22;18502;43.574;1.276;2023-11-19T06:20:18;6.00;99.90
31979;DHT22;18502;43.574;1.276;2023-11-19T06:22:45;6.00;99.90
31979;DHT22;18502;43.574;1.276;2023-11-19T06:25:11;6.00;99.90
31979;DHT22;18502;43.574;1.276;2023-11-19T06:27:43;6.00;99.90
31979;DHT22;18502;43.574;1.276;2023-11-19T06:30:09;5.90;99.90
31979;DHT22;18502;43.574;1.276;2023-11-19T06:32:35;5.90;99.90
31979;DHT22;18502;43.574;1.276;2023-11-19T06:35:00;5.90;99.90
31979;DHT22;18502;43.574;1.276;2023-11-19T06:37:26;5.80;99.90
31979;DHT22;18502;43.574;1.276;2023-11-19T06:39:52;5.80;99.90
31979;DHT22;18502;43.574;1.276;2023-11-19T06:42:18;5.80;99.90
31979;DHT22;18502;43.574;1.276;2023-11-19T06:44:44;5.80;99.90
31979;DHT22;18502;43.574;1.276;2023-11-19T06:47:09;5.80;99.90
31979;DHT22;18502;43.574;1.276;2023-11-19T06:49:35;5.80;99.90
31979;DHT22;18502;43.574;1.276;2023-11-19T06:52:00;5.70;99.90
31979;DHT22;18502;43.574;1.276;2023-11-19T06:54:26;5.70;99.90
31979;DHT22;18502;43.574;1.276;2023-11-19T06:56:52;5.70;99.90
31979;DHT22;18502;43.574;1.276;2023-11-19T06:59:18;5.80;99.90
31979;DHT22;18502;43.574;1.276;2023-11-19T07:01:44;5.80;99.90
31979;DHT22;18502;43.574;1.276;2023-11-19T07:04:13;5.80;99.90
31979;DHT22;18502;43.574;1.276;2023-11-19T07:06:38;5.80;99.90
31979;DHT22;18502;43.574;1.276;2023-11-19T07:09:06;5.90;99.90
31979;DHT22;18502;43.574;1.276;2023-11-19T07:11:39;5.90;99.90
31979;DHT22;18502;43.574;1.276;2023-11-19T07:14:05;5.90;99.90
31979;DHT22;18502;43.574;1.276;2023-11-19T07:16:34;5.90;99.90
31979;DHT22;18502;43.574;1.276;2023-11-19T07:19:03;6.00;99.90
31979;DHT22;18502;43.574;1.276;2023-11-19T07:21:30;6.00;99.90
31979;DHT22;18502;43.574;1.276;2023-11-19T07:23:56;6.10;99.90
31979;DHT22;18502;43.574;1.276;2023-11-19T07:26:22;6.10;99.90
31979;DHT22;18502;43.574;1.276;2023-11-19T07:28:49;6.20;99.90
31979;DHT22;18502;43.574;1.276;2023-11-19T07:31:15;6.40;99.90
31979;DHT22;18502;43.574;1.276;2023-11-19T07:33:40;6.40;99.90
31979;DHT22;18502;43.574;1.276;2023-11-19T07:36:09;6.50;99.90
31979;DHT22;18502;43.574;1.276;2023-11-19T07:38:34;6.50;99.90
31979;DHT22;18502;43.574;1.276;2023-11-19T07:41:00;6.60;99.90
31979;DHT22;18502;43.574;1.276;2023-11-19T07:43:26;6.80;99.90
31979;DHT22;18502;43.574;1.276;2023-11-19T07:45:52;6.90;99.90
31979;DHT22;18502;43.574;1.276;2023-11-19T07:48:17;7.10;99.90
31979;DHT22;18502;43.574;1.276;2023-11-19T07:50:48;8.20;99.90
31979;DHT22;18502;43.574;1.276;2023-11-19T07:53:16;10.00;99.90
31979;DHT22;18502;43.574;1.276;2023-11-19T07:55:41;11.50;99.90
31979;DHT22;18502;43.574;1.276;2023-11-19T07:58:07;12.10;99.90
31979;DHT22;18502;43.574;1.276;2023-11-19T08:00:33;12.40;99.90
31979;DHT22;18502;43.574;1.276;2023-11-19T08:02:58;13.00;99.90
31979;DHT22;18502;43.574;1.276;2023-11-19T08:05:24;13.10;99.90
31979;DHT22;18502;43.574;1.276;2023-11-19T08:07:52;13.20;99.90
31979;DHT22;18502;43.574;1.276;2023-11-19T08:10:19;13.70;99.90
31979;DHT22;18502;43.574;1.276;2023-11-19T08:12:45;13.50;99.90
31979;DHT22;18502;43.574;1.276;2023-11-19T08:15:11;14.00;99.90
31979;DHT22;18502;43.574;1.276;2023-11-19T08:17:37;14.10;99.90
31979;DHT22;18502;43.574;1.276;2023-11-19T08:20:03;14.10;99.90
31979;DHT22;18502;43.574;1.276;2023-11-19T08:22:30;15.10;99.90
31979;DHT22;18502;43.574;1.276;2023-11-19T08:24:56;14.90;99.90
31979;DHT22;18502;43.574;1.276;2023-11-19T08:27:22;14.40;99.90
31979;DHT22;18502;43.574;1.276;2023-11-19T08:29:54;15.60;99.90
31979;DHT22;18502;43.574;1.276;2023-11-19T08:32:22;16.20;99.90
31979;DHT22;18502;43.574;1.276;2023-11-19T08:34:48;15.30;99.90
31979;DHT22;18502;43.574;1.276;2023-11-19T08:37:14;15.70;99.90
31979;DHT22;18502;43.574;1.276;2023-11-19T08:39:39;14.50;99.90
31979;DHT22;18502;43.574;1.276;2023-11-19T08:42:06;14.90;99.90
31979;DHT22;18502;43.574;1.276;2023-11-19T08:44:32;14.90;99.90
31979;DHT22;18502;43.574;1.276;2023-11-19T08:46:58;15.90;99.90
31979;DHT22;18502;43.574;1.276;2023-11-19T08:49:23;16.50;99.90
31979;DHT22;18502;43.574;1.276;2023-11-19T08:51:49;14.90;99.90
31979;DHT22;18502;43.574;1.276;2023-11-19T08:54:14;15.00;99.90
31979;DHT22;18502;43.574;1.276;2023-11-19T08:56:40;14.80;99.90
31979;DHT22;18502;43.574;1.276;2023-11-19T08:59:06;14.50;99.90
31979;DHT22;18502;43.574;1.276;2023-11-19T09:01:31;14.90;99.90
31979;DHT22;18502;43.574;1.276;2023-11-19T09:03:57;16.60;99.90
31979;DHT22;18502;43.574;1.276;2023-11-19T09:06:23;17.90;99.90
31979;DHT22;18502;43.574;1.276;2023-11-19T09:08:48;17.90;99.90
31979;DHT22;18502;43.574;1.276;2023-11-19T09:11:14;18.20;99.90
31979;DHT22;18502;43.574;1.276;2023-11-19T09:13:39;19.10;99.90
31979;DHT22;18502;43.574;1.276;2023-11-19T09:16:05;18.20;99.90
31979;DHT22;18502;43.574;1.276;2023-11-19T09:18:32;16.60;99.90
31979;DHT22;18502;43.574;1.276;2023-11-19T09:20:58;16.90;99.90
31979;DHT22;18502;43.574;1.276;2023-11-19T09:23:24;18.00;99.90
31979;DHT22;18502;43.574;1.276;2023-11-19T09:25:54;18.70;99.90
31979;DHT22;18502;43.574;1.276;2023-11-19T09:28:20;17.70;99.90
31979;DHT22;18502;43.574;1.276;2023-11-19T09:30:46;18.30;99.90
31979;DHT22;18502;43.574;1.276;2023-11-19T09:33:11;20.20;99.90
31979;DHT22;18502;43.574;1.276;2023-11-19T09:35:37;19.70;99.90
31979;DHT22;18502;43.574;1.276;2023-11-19T09:38:02;20.30;99.90
31979;DHT22;18502;43.574;1.276;2023-11-19T09:40:30;19.80;99.90
31979;DHT22;18502;43.574;1.276;2023-11-19T09:42:57;19.80;99.90
31979;DHT22;18502;43.574;1.276;2023-11-19T09:45:27;20.40;99.90
31979;DHT22;18502;43.574;1.276;2023-11-19T09:47:55;22.30;99.90
31979;DHT22;18502;43.574;1.276;2023-11-19T09:50:23;21.70;99.90
31979;DHT22;18502;43.574;1.276;2023-11-19T09:52:49;22.40;99.90
31979;DHT22;18502;43.574;1.276;2023-11-19T09:55:15;22.50;99.90
31979;DHT22;18502;43.574;1.276;2023-11-19T09:57:41;22.50;99.90
31979;DHT22;18502;43.574;1.276;2023-11-19T10:00:10;22.10;99.90
31979;DHT22;18502;43.574;1.276;2023-11-19T10:02:37;22.10;99.90
31979;DHT22;18502;43.574;1.276;2023-11-19T10:05:06;22.60;99.90
31979;DHT22;18502;43.574;1.276;2023-11-19T10:07:33;23.60;99.90
31979;DHT22;18502;43.574;1.276;2023-11-19T10:10:03;24.20;99.90
31979;DHT22;18502;43.574;1.276;2023-11-19T10:12:32;23.90;99.90
31979;DHT22;18502;43.574;1.276;2023-11-19T10:14:58;24.50;99.90
31979;DHT22;18502;43.574;1.276;2023-11-19T10:17:34;23.70;99.90
31979;DHT22;18502;43.574;1.276;2023-11-19T10:20:00;24.40;99.90
31979;DHT22;18502;43.574;1.276;2023-11-19T10:22:27;24.40;99.90
31979;DHT22;18502;43.574;1.276;2023-11-19T10:24:53;23.50;99.90
31979;DHT22;18502;43.574;1.276;2023-11-19T10:27:19;24.20;99.90
31979;DHT22;18502;43.574;1.276;2023-11-19T10:29:46;22.90;99.90
31979;DHT22;18502;43.574;1.276;2023-11-19T10:32:12;23.80;99.90
31979;DHT22;18502;43.574;1.276;2023-11-19T10:34:39;23.30;99.90
31979;DHT22;18502;43.574;1.276;2023-11-19T10:37:05;22.70;99.90
31979;DHT22;18502;43.574;1.276;2023-11-19T10:39:52;22.70;99.90
31979;DHT22;18502;43.574;1.276;2023-11-19T10:42:21;24.00;99.90
31979;DHT22;18502;43.574;1.276;2023-11-19T10:44:46;24.50;99.90
31979;DHT22;18502;43.574;1.276;2023-11-19T10:47:14;25.00;99.90
31979;DHT22;18502;43.574;1.276;2023-11-19T10:49:40;25.00;99.90
31979;DHT22;18502;43.574;1.276;2023-11-19T10:52:08;25.80;99.90
31979;DHT22;18502;43.574;1.276;2023-11-19T10:54:35;24.90;99.90
31979;DHT22;18502;43.574;1.276;2023-11-19T10:57:02;26.10;99.90
31979;DHT22;18502;43.574;1.276;2023-11-19T10:59:31;24.10;99.90
31979;DHT22;18502;43.574;1.276;2023-11-19T11:01:57;23.00;99.90
31979;DHT22;18502;43.574;1.276;2023-11-19T11:04:25;24.80;99.90
31979;DHT22;18502;43.574;1.276;2023-11-19T11:06:55;26.10;99.90
31979;DHT22;18502;43.574;1.276;2023-11-19T11:09:29;27.30;99.90
31979;DHT22;18502;43.574;1.276;2023-11-19T11:11:55;29.70;99.90
31979;DHT22;18502;43.574;1.276;2023-11-19T11:14:23;28.60;99.90
31979;DHT22;18502;43.574;1.276;2023-11-19T11:16:49;29.20;99.90
31979;DHT22;18502;43.574;1.276;2023-11-19T11:19:16;27.40;99.90
31979;DHT22;18502;43.574;1.276;2023-11-19T11:21:47;27.00;99.90
31979;DHT22;18502;43.574;1.276;2023-11-19T11:29:49;29.20;99.90
31979;DHT22;18502;43.574;1.276;2023-11-19T11:35:17;28.90;99.90
31979;DHT22;18502;43.574;1.276;2023-11-19T11:37:49;29.20;99.90
31979;DHT22;18502;43.574;1.276;2023-11-19T11:40:16;27.90;99.90
31979;DHT22;18502;43.574;1.276;2023-11-19T11:42:44;28.80;99.90
31979;DHT22;18502;43.574;1.276;2023-11-19T11:45:14;28.10;99.90
31979;DHT22;18502;43.574;1.276;2023-11-19T11:50:16;27.90;99.90
31979;DHT22;18502;43.574;1.276;2023-11-19T11:55:25;28.70;99.90
31979;DHT22;18502;43.574;1.276;2023-11-19T11:57:51;28.70;99.90
31979;DHT22;18502;43.574;1.276;2023-11-19T12:02:55;28.50;99.90
31979;DHT22;18502;43.574;1.276;2023-11-19T12:05:21;28.30;99.90
31979;DHT22;18502;43.574;1.276;2023-11-19T12:08:01;31.30;99.90
31979;DHT22;18502;43.574;1.276;2023-11-19T12:10:31;30.50;99.90
31979;DHT22;18502;43.574;1.276;2023-11-19T12:13:01;31.00;99.90
31979;DHT22;18502;43.574;1.276;2023-11-19T12:15:27;33.00;99.90
31979;DHT22;18502;43.574;1.276;2023-11-19T12:17:54;34.50;98.90
31979;DHT22;18502;43.574;1.276;2023-11-19T12:20:22;34.90;98.00
31979;DHT22;18502;43.574;1.276;2023-11-19T12:22:48;32.70;96.60
31979;DHT22;18502;43.574;1.276;2023-11-19T12:25:16;30.60;99.40
31979;DHT22;18502;43.574;1.276;2023-11-19T12:27:43;33.50;98.40
31979;DHT22;18502;43.574;1.276;2023-11-19T12:30:09;34.70;97.80
31979;DHT22;18502;43.574;1.276;2023-11-19T12:32:42;35.20;96.50
31979;DHT22;18502;43.574;1.276;2023-11-19T12:35:09;36.10;96.30
31979;DHT22;18502;43.574;1.276;2023-11-19T12:37:48;35.80;96.30
31979;DHT22;18502;43.574;1.276;2023-11-19T12:42:40;35.70;95.00
31979;DHT22;18502;43.574;1.276;2023-11-19T12:45:06;35.40;94.50
31979;DHT22;18502;43.574;1.276;2023-11-19T12:47:33;35.70;95.20
31979;DHT22;18502;43.574;1.276;2023-11-19T12:49:59;34.50;94.60
31979;DHT22;18502;43.574;1.276;2023-11-19T12:52:25;34.60;94.10
31979;DHT22;18502;43.574;1.276;2023-11-19T12:54:50;34.50;94.70
31979;DHT22;18502;43.574;1.276;2023-11-19T12:57:16;35.20;92.80
31979;DHT22;18502;43.574;1.276;2023-11-19T12:59:54;35.60;93.50
31979;DHT22;18502;43.574;1.276;2023-11-19T13:02:21;35.90;92.10
31979;DHT22;18502;43.574;1.276;2023-11-19T13:04:47;36.00;92.80
31979;DHT22;18502;43.574;1.276;2023-11-19T13:07:13;36.00;92.40
31979;DHT22;18502;43.574;1.276;2023-11-19T13:09:38;35.40;91.90
31979;DHT22;18502;43.574;1.276;2023-11-19T13:12:14;34.50;92.80
31979;DHT22;18502;43.574;1.276;2023-11-19T13:14:41;34.60;93.00
31979;DHT22;18502;43.574;1.276;2023-11-19T13:17:07;32.40;94.50
31979;DHT22;18502;43.574;1.276;2023-11-19T13:19:34;31.60;95.20
31979;DHT22;18502;43.574;1.276;2023-11-19T13:21:59;31.90;94.20
31979;DHT22;18502;43.574;1.276;2023-11-19T13:24:25;33.70;94.00
31979;DHT22;18502;43.574;1.276;2023-11-19T13:26:50;34.80;93.00
31979;DHT22;18502;43.574;1.276;2023-11-19T13:29:16;35.90;92.60
31979;DHT22;18502;43.574;1.276;2023-11-19T13:31:42;34.70;93.00
31979;DHT22;18502;43.574;1.276;2023-11-19T13:34:08;36.00;92.70
31979;DHT22;18502;43.574;1.276;2023-11-19T13:36:33;36.10;92.30
31979;DHT22;18502;43.574;1.276;2023-11-19T13:39:00;34.10;91.90
31979;DHT22;18502;43.574;1.276;2023-11-19T13:41:26;34.90;92.40
31979;DHT22;18502;43.574;1.276;2023-11-19T13:43:52;36.00;92.10
31979;DHT22;18502;43.574;1.276;2023-11-19T13:46:18;36.90;91.30
31979;DHT22;18502;43.574;1.276;2023-11-19T13:48:43;37.00;91.90
31979;DHT22;18502;43.574;1.276;2023-11-19T13:51:09;36.10;91.30
31979;DHT22;18502;43.574;1.276;2023-11-19T13:53:35;36.70;91.30
31979;DHT22;18502;43.574;1.276;2023-11-19T13:56:02;37.00;91.20
31979;DHT22;18502;43.574;1.276;2023-11-19T13:58:27;36.80;91.20
31979;DHT22;18502;43.574;1.276;2023-11-19T14:00:53;37.10;90.90
31979;DHT22;18502;43.574;1.276;2023-11-19T14:03:19;36.40;90.30
31979;DHT22;18502;43.574;1.276;2023-11-19T14:05:45;36.60;90.80
31979;DHT22;18502;43.574;1.276;2023-11-19T14:08:10;36.50;91.00
31979;DHT22;18502;43.574;1.276;2023-11-19T14:10:40;36.10;91.30
31979;DHT22;18502;43.574;1.276;2023-11-19T14:13:06;36.40;90.80
31979;DHT22;18502;43.574;1.276;2023-11-19T14:15:32;36.50;90.70
31979;DHT22;18502;43.574;1.276;2023-11-19T14:17:58;36.00;90.40
31979;DHT22;18502;43.574;1.276;2023-11-19T14:20:23;35.70;90.80
31979;DHT22;18502;43.574;1.276;2023-11-19T14:22:50;35.60;91.40
31979;DHT22;18502;43.574;1.276;2023-11-19T14:25:18;35.80;90.80
31979;DHT22;18502;43.574;1.276;2023-11-19T14:27:44;35.70;90.80
31979;DHT22;18502;43.574;1.276;2023-11-19T14:30:12;35.50;91.10
31979;DHT22;18502;43.574;1.276;2023-11-19T14:32:42;35.00;90.90
31979;DHT22;18502;43.574;1.276;2023-11-19T14:35:10;34.70;91.70
31979;DHT22;18502;43.574;1.276;2023-11-19T14:37:36;35.00;91.80
31979;DHT22;18502;43.574;1.276;2023-11-19T14:40:02;34.90;90.90
31979;DHT22;18502;43.574;1.276;2023-11-19T14:42:31;34.80;90.90
31979;DHT22;18502;43.574;1.276;2023-11-19T14:44:57;34.80;91.80
31979;DHT22;18502;43.574;1.276;2023-11-19T14:47:22;33.60;91.70
31979;DHT22;18502;43.574;1.276;2023-11-19T14:49:48;32.40;91.30
31979;DHT22;18502;43.574;1.276;2023-11-19T14:52:14;33.20;91.80
31979;DHT22;18502;43.574;1.276;2023-11-19T14:54:40;32.80;93.00
31979;DHT22;18502;43.574;1.276;2023-11-19T14:57:06;33.00;92.20
31979;DHT22;18502;43.574;1.276;2023-11-19T14:59:35;32.20;91.90
31979;DHT22;18502;43.574;1.276;2023-11-19T15:02:01;33.50;92.60
31979;DHT22;18502;43.574;1.276;2023-11-19T15:04:27;34.30;92.20
31979;DHT22;18502;43.574;1.276;2023-11-19T15:06:53;34.10;91.20
31979;DHT22;18502;43.574;1.276;2023-11-19T15:09:19;33.10;92.20
31979;DHT22;18502;43.574;1.276;2023-11-19T15:11:46;32.90;92.20
31979;DHT22;18502;43.574;1.276;2023-11-19T15:14:13;32.70;92.20
31979;DHT22;18502;43.574;1.276;2023-11-19T15:16:42;33.00;91.90
31979;DHT22;18502;43.574;1.276;2023-11-19T15:19:08;33.80;92.20
31979;DHT22;18502;43.574;1.276;2023-11-19T15:21:34;33.70;92.00
31979;DHT22;18502;43.574;1.276;2023-11-19T15:24:00;32.90;92.10
31979;DHT22;18502;43.574;1.276;2023-11-19T15:26:26;31.10;93.20
31979;DHT22;18502;43.574;1.276;2023-11-19T15:28:52;29.50;93.50
31979;DHT22;18502;43.574;1.276;2023-11-19T15:31:22;28.20;95.50
31979;DHT22;18502;43.574;1.276;2023-11-19T15:33:47;27.10;96.10
31979;DHT22;18502;43.574;1.276;2023-11-19T15:36:13;26.40;96.80
31979;DHT22;18502;43.574;1.276;2023-11-19T15:38:40;25.70;98.40
31979;DHT22;18502;43.574;1.276;2023-11-19T15:41:06;25.20;99.90
31979;DHT22;18502;43.574;1.276;2023-11-19T15:43:33;24.20;99.90
31979;DHT22;18502;43.574;1.276;2023-11-19T15:45:59;23.40;99.90
31979;DHT22;18502;43.574;1.276;2023-11-19T15:48:24;22.70;99.90
31979;DHT22;18502;43.574;1.276;2023-11-19T15:50:51;22.20;99.90
31979;DHT22;18502;43.574;1.276;2023-11-19T15:53:17;21.70;99.90
31979;DHT22;18502;43.574;1.276;2023-11-19T15:55:44;21.30;99.90